createdAt,value
2022-11-24T00:01:27.705Z,36.78
2022-11-24T00:04:00.184Z,37.97
2022-11-24T00:06:31.497Z,36.45
2022-11-24T00:08:58.836Z,28.60
2022-11-24T00:11:31.267Z,28.95
2022-11-24T00:13:58.944Z,28.83
2022-11-24T00:16:35.091Z,28.42
2022-11-24T00:19:03.949Z,27.25
2022-11-24T00:21:31.655Z,26.75
2022-11-24T00:23:59.077Z,29.33
2022-11-24T00:26:28.453Z,26.70
2022-11-24T00:28:56.854Z,27.98
2022-11-24T00:31:28.917Z,25.58
2022-11-24T00:33:58.091Z,26.05
2022-11-24T00:36:29.458Z,24.90
2022-11-24T00:39:05.820Z,24.50
2022-11-24T00:41:33.060Z,24.15
2022-11-24T00:44:00.217Z,28.73
2022-11-24T00:46:28.061Z,28.73
2022-11-24T00:48:55.527Z,26.67
2022-11-24T00:51:26.133Z,26.25
2022-11-24T00:53:53.315Z,27.40
2022-11-24T00:56:19.985Z,26.42
2022-11-24T00:58:46.607Z,30.02
2022-11-24T01:04:47.858Z,33.83
2022-11-24T01:07:14.484Z,40.35
2022-11-24T01:09:43.211Z,37.65
2022-11-24T01:12:09.958Z,35.58
2022-11-24T01:14:36.677Z,37.00
2022-11-24T01:17:03.587Z,35.35
2022-11-24T01:19:30.572Z,34.83
2022-11-24T01:21:57.126Z,34.05
2022-11-24T01:24:23.717Z,33.65
2022-11-24T01:26:50.373Z,33.17
2022-11-24T01:29:17.029Z,29.55
2022-11-24T01:31:43.667Z,31.08
2022-11-24T01:34:10.384Z,28.17
2022-11-24T01:36:37.038Z,28.15
2022-11-24T01:39:03.739Z,26.50
2022-11-24T01:41:30.773Z,30.83
2022-11-24T01:43:57.718Z,28.40
2022-11-24T01:46:29.004Z,24.70
2022-11-24T01:49:11.611Z,23.92
2022-11-24T01:51:43.417Z,23.63
2022-11-24T01:54:18.726Z,21.80
2022-11-24T01:56:49.224Z,20.67
2022-11-24T01:59:19.845Z,19.83
2022-11-24T02:01:48.445Z,22.55
2022-11-24T02:04:19.909Z,30.95
2022-11-24T02:06:47.988Z,32.20
2022-11-24T02:09:40.672Z,30.23
2022-11-24T02:12:07.375Z,29.05
2022-11-24T02:14:36.421Z,28.17
2022-11-24T02:17:03.391Z,23.63
2022-11-24T02:19:38.977Z,26.15
2022-11-24T02:22:14.061Z,26.20
2022-11-24T02:25:00.056Z,23.08
2022-11-24T02:27:26.708Z,23.02
2022-11-24T02:29:53.380Z,22.88
2022-11-24T02:32:20.692Z,24.15
2022-11-24T02:34:47.402Z,23.05
2022-11-24T02:37:14.059Z,22.17
2022-11-24T02:39:40.824Z,23.27
2022-11-24T02:42:11.500Z,25.02
2022-11-24T02:44:44.807Z,26.95
2022-11-24T02:47:12.984Z,25.90
2022-11-24T02:49:39.960Z,119.47
2022-11-24T02:52:07.601Z,24.08
2022-11-24T02:54:35.139Z,23.48
2022-11-24T02:57:01.947Z,23.80
2022-11-24T02:59:28.815Z,22.63
2022-11-24T03:01:55.703Z,25.63
2022-11-24T03:04:22.468Z,22.98
2022-11-24T03:06:49.621Z,22.45
2022-11-24T03:09:16.364Z,23.63
2022-11-24T03:11:42.914Z,24.45
2022-11-24T03:14:10.284Z,22.27
2022-11-24T03:16:37.120Z,22.30
2022-11-24T03:19:04.446Z,22.17
2022-11-24T03:21:31.311Z,20.90
2022-11-24T03:23:58.062Z,24.33
2022-11-24T03:26:25.866Z,23.55
2022-11-24T03:28:57.370Z,22.15
2022-11-24T03:31:24.574Z,23.00
2022-11-24T03:33:51.705Z,24.40
2022-11-24T03:36:18.568Z,58.85
2022-11-24T03:38:45.484Z,23.60
2022-11-24T03:41:12.136Z,22.48
2022-11-24T03:43:43.707Z,20.80
2022-11-24T03:46:11.812Z,17.00
2022-11-24T03:48:38.455Z,19.10
2022-11-24T03:51:05.356Z,18.88
2022-11-24T03:53:33.704Z,18.98
2022-11-24T03:56:02.028Z,17.48
2022-11-24T03:58:29.131Z,17.83
2022-11-24T04:00:56.304Z,17.75
2022-11-24T04:03:23.496Z,18.40
2022-11-24T04:05:50.829Z,18.27
2022-11-24T04:08:17.845Z,18.30
2022-11-24T04:10:44.498Z,16.30
2022-11-24T04:13:13.687Z,15.13
2022-11-24T04:15:41.794Z,14.55
2022-11-24T04:18:09.736Z,14.38
2022-11-24T04:20:37.842Z,15.25
2022-11-24T04:23:04.824Z,17.58
2022-11-24T04:25:32.173Z,16.88
2022-11-24T04:27:59.076Z,17.65
2022-11-24T04:30:27.160Z,15.55
2022-11-24T04:32:53.991Z,16.15
2022-11-24T04:35:21.075Z,15.15
2022-11-24T04:37:47.811Z,14.10
2022-11-24T04:40:14.599Z,15.38
2022-11-24T04:42:41.421Z,15.32
2022-11-24T04:45:08.801Z,15.82
2022-11-24T04:47:35.472Z,21.45
2022-11-24T04:50:02.183Z,18.45
2022-11-24T04:52:30.053Z,15.95
2022-11-24T04:54:56.811Z,12.93
2022-11-24T04:57:26.007Z,15.18
2022-11-24T04:59:53.683Z,16.13
2022-11-24T05:02:20.717Z,15.35
2022-11-24T05:04:47.645Z,14.73
2022-11-24T05:07:18.727Z,14.55
2022-11-24T05:10:05.685Z,14.23
2022-11-24T05:12:32.684Z,11.93
2022-11-24T05:15:00.766Z,11.95
2022-11-24T05:17:35.315Z,11.05
2022-11-24T05:20:01.976Z,10.43
2022-11-24T05:22:29.703Z,10.05
2022-11-24T05:24:56.594Z,10.23
2022-11-24T05:27:23.557Z,11.00
2022-11-24T05:29:50.240Z,10.15
2022-11-24T05:32:16.919Z,11.15
2022-11-24T05:34:43.698Z,10.77
2022-11-24T05:37:10.312Z,11.60
2022-11-24T05:39:37.430Z,14.20
2022-11-24T05:42:24.880Z,17.42
2022-11-24T05:44:52.687Z,14.32
2022-11-24T05:47:19.865Z,13.88
2022-11-24T05:49:46.573Z,13.55
2022-11-24T05:52:13.228Z,13.57
2022-11-24T05:54:39.970Z,16.55
2022-11-24T05:57:06.748Z,16.55
2022-11-24T05:59:34.151Z,28.85
2022-11-24T06:02:00.992Z,21.73
2022-11-24T06:04:27.746Z,29.45
2022-11-24T06:06:54.542Z,33.78
2022-11-24T06:09:21.323Z,27.80
2022-11-24T06:11:48.776Z,30.08
2022-11-24T06:14:15.778Z,24.17
2022-11-24T06:16:42.611Z,19.92
2022-11-24T06:19:10.805Z,17.55
2022-11-24T06:21:37.765Z,21.02
2022-11-24T06:24:05.327Z,22.40
2022-11-24T06:26:31.953Z,22.55
2022-11-24T06:28:58.748Z,28.40
2022-11-24T06:31:25.844Z,31.20
2022-11-24T06:33:53.276Z,33.88
2022-11-24T06:36:20.570Z,33.70
2022-11-24T06:38:47.511Z,32.40
2022-11-24T06:41:16.006Z,22.90
2022-11-24T06:43:42.828Z,32.13
2022-11-24T06:46:09.588Z,33.20
2022-11-24T06:48:36.459Z,42.47
2022-11-24T06:51:07.137Z,36.88
2022-11-24T06:53:37.905Z,38.25
2022-11-24T06:56:10.601Z,37.42
2022-11-24T06:58:42.662Z,33.95
2022-11-24T07:01:09.803Z,36.80
2022-11-24T07:03:36.422Z,28.27
2022-11-24T07:06:03.169Z,29.35
2022-11-24T07:08:30.112Z,20.55
2022-11-24T07:10:56.715Z,19.75
2022-11-24T07:13:23.350Z,18.55
2022-11-24T07:15:50.108Z,17.15
2022-11-24T07:18:16.635Z,16.50
2022-11-24T07:20:43.876Z,21.00
2022-11-24T07:23:10.540Z,35.72
2022-11-24T07:25:37.159Z,21.65
2022-11-24T07:28:04.786Z,26.63
2022-11-24T07:30:31.603Z,23.05
2022-11-24T07:33:02.447Z,21.33
2022-11-24T07:35:29.905Z,19.92
2022-11-24T07:37:57.647Z,19.92
2022-11-24T07:40:26.060Z,17.92
2022-11-24T07:42:53.859Z,18.55
2022-11-24T07:45:21.327Z,17.98
2022-11-24T07:47:47.957Z,16.45
2022-11-24T07:50:15.073Z,19.80
2022-11-24T07:52:41.712Z,19.80
2022-11-24T07:55:08.969Z,20.58
2022-11-24T07:57:36.053Z,24.02
2022-11-24T08:00:07.152Z,24.50
2022-11-24T08:02:33.976Z,23.40
2022-11-24T08:05:00.684Z,17.92
2022-11-24T08:07:27.505Z,15.85
2022-11-24T08:09:54.253Z,13.98
2022-11-24T08:12:24.142Z,11.65
2022-11-24T08:14:51.448Z,13.05
2022-11-24T08:17:18.935Z,12.35
2022-11-24T08:19:45.883Z,12.20
2022-11-24T08:22:12.727Z,10.88
2022-11-24T08:24:46.074Z,10.20
2022-11-24T08:27:14.478Z,13.30
2022-11-24T08:29:41.552Z,10.65
2022-11-24T08:32:09.422Z,11.50
2022-11-24T08:34:36.952Z,10.25
2022-11-24T08:37:05.225Z,10.52
2022-11-24T08:39:32.777Z,10.15
2022-11-24T08:41:59.907Z,10.00
2022-11-24T08:44:28.643Z,10.75
2022-11-24T08:46:55.399Z,10.35
2022-11-24T08:49:22.762Z,11.13
2022-11-24T08:51:51.304Z,11.13
2022-11-24T08:54:18.920Z,10.88
2022-11-24T08:56:47.190Z,10.25
2022-11-24T08:59:14.401Z,9.68
2022-11-24T09:01:42.036Z,10.63
2022-11-24T09:04:08.998Z,10.75
2022-11-24T09:06:35.624Z,9.88
2022-11-24T09:09:02.717Z,9.88
2022-11-24T09:11:30.829Z,7.85
2022-11-24T09:13:57.794Z,7.80
2022-11-24T09:16:27.594Z,7.57
2022-11-24T09:19:01.046Z,6.20
2022-11-24T09:21:28.222Z,6.77
2022-11-24T09:23:55.646Z,6.95
2022-11-24T09:26:29.381Z,6.30
2022-11-24T09:28:57.362Z,5.68
2022-11-24T09:31:29.886Z,6.43
2022-11-24T09:33:57.613Z,5.10
2022-11-24T09:36:24.789Z,6.53
2022-11-24T09:38:51.389Z,5.95
2022-11-24T09:41:18.169Z,5.93
2022-11-24T09:44:18.779Z,6.38
2022-11-24T09:47:27.988Z,7.35
2022-11-24T09:50:18.297Z,5.57
2022-11-24T09:52:54.457Z,5.93
2022-11-24T09:55:23.840Z,5.93
2022-11-24T09:57:59.959Z,5.90
2022-11-24T10:00:26.694Z,5.65
2022-11-24T10:02:53.363Z,4.75
2022-11-24T10:05:20.595Z,4.88
2022-11-24T10:08:22.832Z,5.22
2022-11-24T10:10:59.724Z,4.30
2022-11-24T10:14:07.631Z,4.43
2022-11-24T10:16:56.954Z,4.30
2022-11-24T10:19:37.068Z,4.50
2022-11-24T10:22:22.472Z,4.30
2022-11-24T10:25:10.324Z,6.72
2022-11-24T10:27:43.513Z,4.82
2022-11-24T10:30:19.601Z,5.65
2022-11-24T10:32:55.759Z,4.60
2022-11-24T10:35:28.685Z,4.60
2022-11-24T10:38:14.292Z,4.00
2022-11-24T10:41:26.419Z,5.57
2022-11-24T10:43:53.278Z,3.75
2022-11-24T10:46:25.255Z,4.40
2022-11-24T10:49:04.204Z,4.00
2022-11-24T10:51:30.809Z,4.45
2022-11-24T10:54:06.163Z,6.38
2022-11-24T10:56:41.266Z,6.55
2022-11-24T10:59:27.918Z,6.60
2022-11-24T11:01:55.493Z,4.70
2022-11-24T11:04:35.711Z,6.00
2022-11-24T11:07:14.549Z,5.00
2022-11-24T11:09:41.310Z,5.47
2022-11-24T11:12:43.478Z,3.72
2022-11-24T11:15:40.859Z,4.47
2022-11-24T11:18:18.809Z,5.38
2022-11-24T11:20:53.222Z,5.47
2022-11-24T11:23:27.753Z,8.07
2022-11-24T11:26:27.904Z,8.45
2022-11-24T11:35:04.552Z,4.80
2022-11-24T11:37:33.376Z,4.35
2022-11-24T11:40:00.903Z,5.30
2022-11-24T11:45:34.922Z,4.75
2022-11-24T11:48:01.699Z,4.25
2022-11-24T11:51:14.975Z,4.15
2022-11-24T11:53:30.538Z,3.70
2022-11-24T11:56:06.161Z,3.58
2022-11-24T11:58:57.374Z,3.90
2022-11-24T12:02:01.930Z,4.00
2022-11-24T12:04:40.481Z,3.50
2022-11-24T12:07:22.683Z,3.90
2022-11-24T12:10:21.616Z,3.88
2022-11-24T12:13:13.089Z,3.55
2022-11-24T12:16:19.673Z,3.47
2022-11-24T12:18:58.646Z,3.42
2022-11-24T12:21:41.656Z,3.95
2022-11-24T12:24:45.015Z,4.80
2022-11-24T12:27:47.332Z,4.82
2022-11-24T12:30:18.890Z,4.40
2022-11-24T12:33:00.574Z,4.28
2022-11-24T12:35:48.111Z,3.70
2022-11-24T12:38:41.841Z,3.53
2022-11-24T12:41:45.786Z,3.30
2022-11-24T12:44:28.126Z,3.10
2022-11-24T12:47:29.585Z,3.65
2022-11-24T12:50:14.676Z,3.50
2022-11-24T12:52:45.236Z,4.13
2022-11-24T12:55:19.801Z,4.10
2022-11-24T12:58:28.547Z,4.97
2022-11-24T13:01:22.664Z,4.82
2022-11-24T13:04:10.682Z,5.22
2022-11-24T13:06:49.411Z,5.07
2022-11-24T13:09:16.569Z,4.55
2022-11-24T13:11:51.095Z,6.38
2022-11-24T13:14:19.575Z,6.68
2022-11-24T13:17:39.326Z,5.55
2022-11-24T13:20:25.735Z,5.35
2022-11-24T13:22:55.548Z,5.10
2022-11-24T13:25:33.861Z,5.32
2022-11-24T13:28:06.743Z,5.55
2022-11-24T13:30:33.305Z,4.57
2022-11-24T13:33:28.126Z,6.25
2022-11-24T13:38:51.212Z,4.55
2022-11-24T13:41:33.092Z,4.22
2022-11-24T13:44:15.575Z,4.70
2022-11-24T13:47:06.262Z,4.35
2022-11-24T13:49:41.423Z,4.63
2022-11-24T13:52:36.225Z,5.72
2022-11-24T13:57:53.787Z,5.75
2022-11-24T14:00:20.905Z,6.65
2022-11-24T14:02:48.691Z,5.75
2022-11-24T14:05:17.342Z,5.75
2022-11-24T14:07:46.842Z,6.45
2022-11-24T14:10:22.225Z,4.65
2022-11-24T14:13:24.172Z,4.72
2022-11-24T14:16:06.276Z,4.03
2022-11-24T14:18:35.208Z,4.05
2022-11-24T14:21:16.417Z,3.83
2022-11-24T14:23:53.010Z,3.25
2022-11-24T14:26:27.828Z,3.40
2022-11-24T14:29:02.859Z,3.00
2022-11-24T14:31:29.508Z,3.50
2022-11-24T14:34:17.617Z,3.35
2022-11-24T14:36:44.301Z,3.47
2022-11-24T14:39:16.395Z,3.10
2022-11-24T14:41:51.601Z,3.55
2022-11-24T14:44:28.089Z,3.85
2022-11-24T14:47:31.851Z,3.30
2022-11-24T14:50:12.533Z,2.97
2022-11-24T14:52:59.148Z,3.00
2022-11-24T14:55:31.894Z,2.90
2022-11-24T14:57:59.996Z,3.20
2022-11-24T15:00:27.187Z,2.70
2022-11-24T15:03:08.773Z,2.70
2022-11-24T15:05:56.434Z,2.60
2022-11-24T15:08:25.631Z,2.67
2022-11-24T15:11:01.104Z,4.68
2022-11-24T15:13:29.614Z,4.80
2022-11-24T15:16:03.167Z,3.33
2022-11-24T15:18:38.318Z,3.65
2022-11-24T15:21:05.407Z,3.20
2022-11-24T15:23:35.889Z,3.60
2022-11-24T15:26:02.502Z,3.72
2022-11-24T15:28:30.863Z,3.72
2022-11-24T15:31:06.528Z,3.45
2022-11-24T15:33:33.513Z,3.53
2022-11-24T15:36:00.538Z,3.97
2022-11-24T15:38:27.421Z,3.35
2022-11-24T15:40:56.750Z,4.03
2022-11-24T15:43:32.172Z,3.60
2022-11-24T15:45:59.820Z,3.03
2022-11-24T15:48:26.748Z,3.40
2022-11-24T15:50:54.219Z,4.60
2022-11-24T15:53:23.106Z,5.40
2022-11-24T15:55:50.579Z,4.85
2022-11-24T15:58:17.317Z,5.97
2022-11-24T16:00:45.190Z,4.35
2022-11-24T16:03:44.968Z,5.07
2022-11-24T16:05:59.069Z,5.85
2022-11-24T16:08:25.625Z,9.50
2022-11-24T16:10:52.248Z,10.20
2022-11-24T16:13:19.335Z,13.57
2022-11-24T16:15:46.210Z,14.90
2022-11-24T16:18:14.028Z,14.05
2022-11-24T16:20:40.982Z,14.70
2022-11-24T16:23:07.599Z,15.18
2022-11-24T16:25:34.330Z,10.55
2022-11-24T16:28:01.505Z,8.63
2022-11-24T16:30:28.111Z,8.00
2022-11-24T16:32:54.819Z,7.80
2022-11-24T16:35:21.737Z,7.32
2022-11-24T16:37:48.964Z,7.95
2022-11-24T16:40:15.650Z,7.35
2022-11-24T16:42:42.420Z,7.43
2022-11-24T16:45:12.773Z,7.47
2022-11-24T16:47:41.673Z,7.85
2022-11-24T16:50:12.267Z,9.02
2022-11-24T16:52:38.957Z,9.35
2022-11-24T16:55:09.831Z,8.95
2022-11-24T16:57:37.000Z,8.10
2022-11-24T17:00:05.352Z,8.98
2022-11-24T17:02:33.551Z,13.20
2022-11-24T17:05:00.373Z,21.25
2022-11-24T17:07:27.290Z,20.92
2022-11-24T17:09:53.930Z,16.40
2022-11-24T17:12:20.687Z,11.95
2022-11-24T17:15:09.389Z,15.35
2022-11-24T17:17:34.085Z,12.15
2022-11-24T17:20:00.742Z,10.73
2022-11-24T17:22:28.010Z,9.65
2022-11-24T17:24:54.629Z,12.60
2022-11-24T17:27:21.131Z,11.43
2022-11-24T17:29:47.817Z,12.70
2022-11-24T17:32:14.874Z,16.00
2022-11-24T17:34:41.488Z,17.70
2022-11-24T17:37:08.093Z,17.90
2022-11-24T17:39:34.929Z,18.05
2022-11-24T17:42:01.542Z,15.63
2022-11-24T17:44:28.177Z,17.30
2022-11-24T17:46:55.137Z,16.70
2022-11-24T17:49:21.975Z,16.50
2022-11-24T17:51:50.602Z,13.52
2022-11-24T17:54:45.238Z,7.50
2022-11-24T17:57:04.868Z,7.40
2022-11-24T17:59:31.702Z,6.22
2022-11-24T18:01:58.339Z,6.70
2022-11-24T18:04:25.000Z,6.82
2022-11-24T18:06:51.778Z,9.70
2022-11-24T18:09:18.377Z,8.77
2022-11-24T18:11:45.106Z,10.27
2022-11-24T18:14:11.786Z,9.85
2022-11-24T18:16:38.672Z,9.75
2022-11-24T18:19:10.650Z,10.10
2022-11-24T18:21:42.254Z,10.50
2022-11-24T18:24:11.418Z,8.18
2022-11-24T18:26:39.425Z,9.45
2022-11-24T18:29:06.469Z,8.95
2022-11-24T18:31:35.382Z,4.75
2022-11-24T18:34:03.299Z,6.57
2022-11-24T18:36:30.877Z,5.00
2022-11-24T18:39:01.970Z,4.28
2022-11-24T18:41:28.626Z,4.80
2022-11-24T18:43:55.247Z,5.25
2022-11-24T18:46:22.294Z,4.60
2022-11-24T18:48:48.988Z,5.20
2022-11-24T18:51:16.030Z,4.72
2022-11-24T18:53:44.490Z,4.63
2022-11-24T18:56:21.349Z,3.80
2022-11-24T18:58:47.911Z,3.85
2022-11-24T19:01:15.662Z,3.88
2022-11-24T19:03:48.967Z,3.40
2022-11-24T19:06:21.371Z,4.85
2022-11-24T19:08:48.994Z,3.50
2022-11-24T19:11:19.614Z,4.18
2022-11-24T19:13:47.733Z,3.88
2022-11-24T19:16:15.170Z,4.22
2022-11-24T19:18:42.638Z,3.78
2022-11-24T19:21:09.451Z,4.10
2022-11-24T19:23:36.212Z,4.40
2022-11-24T19:26:04.689Z,4.20
2022-11-24T19:28:32.721Z,4.55
2022-11-24T19:31:03.548Z,4.43
2022-11-24T19:33:31.343Z,4.50
2022-11-24T19:36:06.332Z,4.38
2022-11-24T19:38:34.948Z,4.38
2022-11-24T19:41:04.295Z,4.57
2022-11-24T19:43:32.082Z,4.50
2022-11-24T19:46:07.657Z,5.55
2022-11-24T19:48:36.770Z,5.22
2022-11-24T19:51:06.089Z,4.82
2022-11-24T19:53:33.364Z,5.15
2022-11-24T19:56:05.477Z,4.55
2022-11-24T19:58:33.031Z,4.95
2022-11-24T20:01:18.256Z,4.75
2022-11-24T20:03:46.686Z,5.53
2022-11-24T20:06:14.473Z,7.60
2022-11-24T20:08:42.734Z,10.70
2022-11-24T20:11:15.302Z,10.63
2022-11-24T20:13:43.857Z,10.60
2022-11-24T20:16:26.610Z,10.77
2022-11-24T20:18:55.294Z,11.93
2022-11-24T20:21:25.010Z,11.60
2022-11-24T20:23:55.959Z,10.68
2022-11-24T20:26:24.411Z,9.70
2022-11-24T20:28:53.318Z,10.27
2022-11-24T20:31:23.245Z,9.13
2022-11-24T20:33:50.325Z,9.85
2022-11-24T20:36:20.894Z,9.35
2022-11-24T20:38:48.578Z,9.52
2022-11-24T20:41:17.678Z,9.68
2022-11-24T20:43:45.068Z,9.23
2022-11-24T20:46:14.659Z,11.90
2022-11-24T20:48:41.678Z,14.65
2022-11-24T20:51:13.767Z,13.43
2022-11-24T20:53:41.045Z,11.00
2022-11-24T20:56:14.991Z,11.70
2022-11-24T20:58:42.208Z,11.25
2022-11-24T21:01:11.777Z,11.65
2022-11-24T21:03:43.045Z,11.65
2022-11-24T21:06:10.991Z,11.60
2022-11-24T21:08:39.069Z,12.70
2022-11-24T21:11:07.032Z,10.57
2022-11-24T21:13:35.451Z,11.77
2022-11-24T21:16:32.237Z,11.55
2022-11-24T21:19:07.535Z,11.50
2022-11-24T21:21:36.634Z,11.70
2022-11-24T21:24:11.201Z,12.35
2022-11-24T21:26:39.222Z,11.25
2022-11-24T21:29:06.906Z,12.48
2022-11-24T21:31:38.412Z,12.30
2022-11-24T21:34:07.230Z,10.70
2022-11-24T21:36:35.377Z,10.18
2022-11-24T21:39:03.552Z,11.93
2022-11-24T21:41:32.867Z,14.23
2022-11-24T21:43:59.596Z,16.25
2022-11-24T21:46:26.238Z,18.58
2022-11-24T21:48:54.178Z,17.30
2022-11-24T21:51:21.287Z,16.00
2022-11-24T21:53:48.024Z,16.63
2022-11-24T21:56:17.337Z,16.48
2022-11-24T21:58:48.091Z,15.75
2022-11-24T22:01:16.238Z,16.25
2022-11-24T22:03:43.849Z,15.85
2022-11-24T22:06:10.963Z,16.20
2022-11-24T22:08:38.101Z,15.40
2022-11-24T22:11:24.555Z,15.10
2022-11-24T22:13:52.398Z,15.73
2022-11-24T22:16:20.962Z,13.80
2022-11-24T22:18:47.995Z,13.48
2022-11-24T22:21:17.260Z,13.73
2022-11-24T22:23:44.393Z,12.70
2022-11-24T22:26:16.555Z,13.60
2022-11-24T22:28:44.129Z,13.23
2022-11-24T22:31:25.753Z,14.07
2022-11-24T22:33:53.489Z,14.30
2022-11-24T22:36:30.400Z,14.73
2022-11-24T22:38:59.470Z,14.88
2022-11-24T22:41:26.266Z,14.15
2022-11-24T22:43:53.737Z,15.15
2022-11-24T22:46:23.303Z,14.32
2022-11-24T22:48:52.936Z,14.50
2022-11-24T22:51:22.391Z,15.95
2022-11-24T22:53:51.327Z,14.52
2022-11-24T22:56:19.615Z,14.73
2022-11-24T22:58:46.637Z,15.93
2022-11-24T23:01:18.546Z,14.77
2022-11-24T23:03:45.598Z,15.05
2022-11-24T23:06:15.642Z,14.35
2022-11-24T23:08:42.765Z,12.70
2022-11-24T23:11:18.189Z,11.82
2022-11-24T23:13:45.062Z,11.10
2022-11-24T23:16:14.660Z,11.95
2022-11-24T23:18:42.316Z,12.43
2022-11-24T23:21:13.118Z,12.43
2022-11-24T23:23:40.332Z,12.98
2022-11-24T23:26:10.995Z,14.60
2022-11-24T23:28:38.881Z,12.88
2022-11-24T23:31:12.332Z,13.88
2022-11-24T23:33:40.072Z,14.32
2022-11-24T23:36:16.788Z,14.30
2022-11-24T23:38:44.757Z,14.38
2022-11-24T23:41:14.286Z,13.10
2022-11-24T23:43:42.184Z,13.82
2022-11-24T23:46:18.630Z,13.30
2022-11-24T23:48:46.317Z,12.45
2022-11-24T23:51:24.844Z,13.23
2022-11-24T23:53:52.848Z,14.10
2022-11-24T23:56:23.037Z,13.48
2022-11-24T23:58:51.250Z,14.20
